createdAt,value
2023-03-22T00:02:17.338Z,6.97
2023-03-22T00:04:45.677Z,6.96
2023-03-22T00:07:13.887Z,6.96
2023-03-22T00:09:42.166Z,6.96
2023-03-22T00:12:10.465Z,6.96
2023-03-22T00:14:38.755Z,6.96
2023-03-22T00:17:06.994Z,6.97
2023-03-22T00:19:35.256Z,6.96
2023-03-22T00:22:06.234Z,6.96
2023-03-22T00:24:34.628Z,6.96
2023-03-22T00:27:03.495Z,6.93
2023-03-22T00:29:31.781Z,6.92
2023-03-22T00:32:00.173Z,6.91
2023-03-22T00:34:32.157Z,6.87
2023-03-22T00:37:01.533Z,6.84
2023-03-22T00:39:30.103Z,6.84
2023-03-22T00:41:58.365Z,6.84
2023-03-22T00:44:27.099Z,6.85
2023-03-22T00:46:55.456Z,6.86
2023-03-22T00:49:25.606Z,6.86
2023-03-22T00:51:54.824Z,6.88
2023-03-22T00:54:23.091Z,6.87
2023-03-22T00:56:51.339Z,6.85
2023-03-22T00:59:19.735Z,6.82
2023-03-22T01:01:48.038Z,6.80
2023-03-22T01:04:25.790Z,6.80
2023-03-22T01:07:00.707Z,6.80
2023-03-22T01:09:33.787Z,6.79
2023-03-22T01:12:03.700Z,6.73
2023-03-22T01:14:31.899Z,6.69
2023-03-22T01:17:00.328Z,6.65
2023-03-22T01:19:29.016Z,6.62
2023-03-22T01:21:57.840Z,6.60
2023-03-22T01:24:26.535Z,6.59
2023-03-22T01:26:54.944Z,6.58
2023-03-22T01:29:24.012Z,6.59
2023-03-22T01:31:52.622Z,6.59
2023-03-22T01:34:22.307Z,6.59
2023-03-22T01:36:51.013Z,6.56
2023-03-22T01:39:19.536Z,6.52
2023-03-22T01:41:48.751Z,6.51
2023-03-22T01:44:20.431Z,6.48
2023-03-22T01:46:50.998Z,6.45
2023-03-22T01:49:32.012Z,6.44
2023-03-22T01:52:09.236Z,6.44
2023-03-22T01:54:57.829Z,6.44
2023-03-22T01:57:46.368Z,6.43
2023-03-22T02:00:22.526Z,6.44
2023-03-22T02:03:07.385Z,6.42
2023-03-22T02:05:39.681Z,6.41
2023-03-22T02:08:09.425Z,6.38
2023-03-22T02:11:04.787Z,6.34
2023-03-22T02:13:48.099Z,6.25
2023-03-22T02:17:19.395Z,6.14
2023-03-22T02:20:04.778Z,6.08
2023-03-22T02:22:58.344Z,6.08
2023-03-22T02:25:48.386Z,6.08
2023-03-22T02:28:59.590Z,6.09
2023-03-22T02:31:52.843Z,6.09
2023-03-22T02:34:36.189Z,6.07
2023-03-22T02:37:22.568Z,6.05
2023-03-22T02:40:03.934Z,6.04
2023-03-22T02:43:04.735Z,6.04
2023-03-22T02:45:55.328Z,6.04
2023-03-22T02:48:32.531Z,6.00
2023-03-22T02:51:23.839Z,5.96
2023-03-22T02:54:08.705Z,5.92
2023-03-22T02:56:41.211Z,5.90
2023-03-22T02:59:13.075Z,5.90
2023-03-22T03:01:46.199Z,5.90
2023-03-22T03:04:19.725Z,5.89
2023-03-22T03:06:51.833Z,5.85
2023-03-22T03:09:21.293Z,5.80
2023-03-22T03:11:52.091Z,5.74
2023-03-22T03:14:29.391Z,5.69
2023-03-22T03:17:21.435Z,5.62
2023-03-22T03:20:31.092Z,5.59
2023-03-22T03:23:05.059Z,5.56
2023-03-22T03:25:44.352Z,5.52
2023-03-22T03:28:23.093Z,5.49
2023-03-22T03:31:34.823Z,5.47
2023-03-22T03:34:05.910Z,5.39
2023-03-22T03:36:37.986Z,5.30
2023-03-22T03:39:11.045Z,5.24
2023-03-22T03:41:42.353Z,5.19
2023-03-22T03:44:11.616Z,5.13
2023-03-22T03:46:40.927Z,5.08
2023-03-22T03:49:12.692Z,5.05
2023-03-22T03:51:52.550Z,5.01
2023-03-22T03:54:21.382Z,4.96
2023-03-22T03:56:49.935Z,4.93
2023-03-22T03:59:19.105Z,4.91
2023-03-22T04:01:52.759Z,4.91
2023-03-22T04:04:29.952Z,4.91
2023-03-22T04:07:04.007Z,4.93
2023-03-22T04:09:35.301Z,4.96
2023-03-22T04:12:23.813Z,4.99
2023-03-22T04:15:12.208Z,5.03
2023-03-22T04:17:41.595Z,5.06
2023-03-22T04:20:12.484Z,5.10
2023-03-22T04:22:42.300Z,5.13
2023-03-22T04:25:13.485Z,5.15
2023-03-22T04:27:51.333Z,5.18
2023-03-22T04:30:20.668Z,5.22
2023-03-22T04:33:07.663Z,5.27
2023-03-22T04:35:59.491Z,5.31
2023-03-22T04:38:33.168Z,5.35
2023-03-22T04:41:01.715Z,5.38
2023-03-22T04:43:39.452Z,5.41
2023-03-22T04:46:13.001Z,5.44
2023-03-22T04:48:47.865Z,5.46
2023-03-22T04:51:17.101Z,5.48
2023-03-22T04:53:54.996Z,5.51
2023-03-22T04:56:23.932Z,5.52
2023-03-22T04:58:52.725Z,5.54
2023-03-22T05:01:21.136Z,5.55
2023-03-22T05:03:53.656Z,5.56
2023-03-22T05:06:23.304Z,5.57
2023-03-22T05:08:58.801Z,5.59
2023-03-22T05:11:28.185Z,5.61
2023-03-22T05:14:08.417Z,5.62
2023-03-22T05:16:37.182Z,5.65
2023-03-22T05:19:06.781Z,5.70
2023-03-22T05:21:36.980Z,5.75
2023-03-22T05:24:07.103Z,5.82
2023-03-22T05:26:38.086Z,5.90
2023-03-22T05:29:06.494Z,5.98
2023-03-22T05:31:46.589Z,6.06
2023-03-22T05:34:15.275Z,6.16
2023-03-22T05:36:43.730Z,6.27
2023-03-22T05:39:23.164Z,6.41
2023-03-22T05:41:51.840Z,6.57
2023-03-22T05:44:20.297Z,6.76
2023-03-22T05:47:14.671Z,6.95
2023-03-22T05:49:53.998Z,7.14
2023-03-22T05:52:24.010Z,7.23
2023-03-22T05:55:07.447Z,7.34
2023-03-22T05:57:36.178Z,7.43
2023-03-22T06:00:15.147Z,7.49
2023-03-22T06:02:56.381Z,7.54
2023-03-22T06:05:25.455Z,7.62
2023-03-22T06:07:53.954Z,7.67
2023-03-22T06:10:24.298Z,7.71
2023-03-22T06:12:53.893Z,7.74
2023-03-22T06:15:26.393Z,7.75
2023-03-22T06:18:03.274Z,7.79
2023-03-22T06:20:35.477Z,7.84
2023-03-22T06:23:08.998Z,7.90
2023-03-22T06:25:37.694Z,7.99
2023-03-22T06:28:08.589Z,8.08
2023-03-22T06:30:38.499Z,8.12
2023-03-22T06:33:36.944Z,8.19
2023-03-22T06:36:12.070Z,8.26
2023-03-22T06:38:51.022Z,8.32
2023-03-22T06:41:19.364Z,8.34
2023-03-22T06:43:47.570Z,8.36
2023-03-22T06:46:31.634Z,8.37
2023-03-22T06:49:07.983Z,8.39
2023-03-22T06:51:36.520Z,8.43
2023-03-22T06:54:05.032Z,8.49
2023-03-22T06:56:33.402Z,8.53
2023-03-22T06:59:02.489Z,8.60
2023-03-22T07:01:31.089Z,8.70
2023-03-22T07:03:59.631Z,8.82
2023-03-22T07:06:28.737Z,8.96
2023-03-22T07:08:57.032Z,9.10
2023-03-22T07:11:28.480Z,9.28
2023-03-22T07:14:03.967Z,9.49
2023-03-22T07:16:48.929Z,9.68
2023-03-22T07:19:19.025Z,9.93
2023-03-22T07:21:47.827Z,10.13
2023-03-22T07:24:16.460Z,10.22
2023-03-22T07:26:46.586Z,10.30
2023-03-22T07:29:18.397Z,10.41
2023-03-22T07:31:46.802Z,10.58
2023-03-22T07:34:23.299Z,10.72
2023-03-22T07:37:03.076Z,10.80
2023-03-22T07:39:31.896Z,10.89
2023-03-22T07:42:00.355Z,11.00
2023-03-22T07:44:54.157Z,11.12
2023-03-22T07:47:39.644Z,11.25
2023-03-22T07:50:32.019Z,11.39
2023-03-22T07:53:01.577Z,11.47
2023-03-22T07:55:30.092Z,11.50
2023-03-22T07:57:58.398Z,11.51
2023-03-22T08:00:27.192Z,11.54
2023-03-22T08:03:02.263Z,11.61
2023-03-22T08:05:51.754Z,11.71
2023-03-22T08:08:20.771Z,11.79
2023-03-22T08:10:50.820Z,11.88
2023-03-22T08:13:19.308Z,11.89
2023-03-22T08:15:47.681Z,11.89
2023-03-22T08:18:16.023Z,11.91
2023-03-22T08:20:45.801Z,11.92
2023-03-22T08:23:20.112Z,11.95
2023-03-22T08:25:51.181Z,12.01
2023-03-22T08:28:20.298Z,12.11
2023-03-22T08:30:49.360Z,12.30
2023-03-22T08:33:21.983Z,12.41
2023-03-22T08:35:51.267Z,12.48
2023-03-22T08:38:20.983Z,12.56
2023-03-22T08:40:52.115Z,12.70
2023-03-22T08:43:23.251Z,12.79
2023-03-22T08:45:53.448Z,12.89
2023-03-22T08:48:22.224Z,13.08
2023-03-22T08:51:08.211Z,13.30
2023-03-22T08:53:47.373Z,13.48
2023-03-22T08:56:44.768Z,13.55
2023-03-22T08:59:21.837Z,13.66
2023-03-22T09:02:16.430Z,13.83
2023-03-22T09:04:45.063Z,13.97
2023-03-22T09:07:13.389Z,14.12
2023-03-22T09:09:43.501Z,14.28
2023-03-22T09:12:12.670Z,14.41
2023-03-22T09:14:41.237Z,14.56
2023-03-22T09:17:10.003Z,14.70
2023-03-22T09:19:38.303Z,14.83
2023-03-22T09:22:07.087Z,14.93
2023-03-22T09:24:42.604Z,15.10
2023-03-22T09:27:10.857Z,15.29
2023-03-22T09:29:39.095Z,15.46
2023-03-22T09:32:11.192Z,15.62
2023-03-22T09:34:40.747Z,15.73
2023-03-22T09:37:09.375Z,15.78
2023-03-22T09:39:49.353Z,15.90
2023-03-22T09:42:42.338Z,16.09
2023-03-22T09:45:15.395Z,16.34
2023-03-22T09:47:55.892Z,16.52
2023-03-22T09:50:28.468Z,16.52
2023-03-22T09:52:58.475Z,16.55
2023-03-22T09:56:17.130Z,16.66
2023-03-22T09:59:00.045Z,16.96
2023-03-22T10:01:47.043Z,17.23
2023-03-22T10:04:46.142Z,17.34
2023-03-22T10:07:21.052Z,17.52
2023-03-22T10:09:55.848Z,17.78
2023-03-22T10:12:32.277Z,18.16
2023-03-22T10:15:15.467Z,18.34
2023-03-22T10:17:52.261Z,18.57
2023-03-22T10:20:42.542Z,18.88
2023-03-22T10:23:16.872Z,18.92
2023-03-22T10:25:46.202Z,18.80
2023-03-22T10:28:26.844Z,18.82
2023-03-22T10:30:57.333Z,18.91
2023-03-22T10:33:39.095Z,18.79
2023-03-22T10:36:13.653Z,18.59
2023-03-22T10:38:53.180Z,18.33
2023-03-22T10:41:24.936Z,18.17
2023-03-22T10:44:00.807Z,18.06
2023-03-22T10:46:36.967Z,17.96
2023-03-22T10:49:07.420Z,17.83
2023-03-22T10:51:49.671Z,17.63
2023-03-22T10:54:24.613Z,17.41
2023-03-22T10:56:54.482Z,17.24
2023-03-22T10:59:47.439Z,17.05
2023-03-22T11:02:20.516Z,16.79
2023-03-22T11:04:50.802Z,16.65
2023-03-22T11:07:42.818Z,16.47
2023-03-22T11:10:11.077Z,16.46
2023-03-22T11:12:55.261Z,16.43
2023-03-22T11:15:31.196Z,16.50
2023-03-22T11:18:04.726Z,16.68
2023-03-22T11:20:34.516Z,16.90
2023-03-22T11:23:06.999Z,17.12
2023-03-22T11:25:38.297Z,17.36
2023-03-22T11:28:22.618Z,17.66
2023-03-22T11:31:08.543Z,17.97
2023-03-22T11:33:37.603Z,18.20
2023-03-22T11:36:17.439Z,18.38
2023-03-22T11:38:47.357Z,18.51
2023-03-22T11:41:22.322Z,18.65
2023-03-22T11:43:56.966Z,18.87
2023-03-22T11:46:25.736Z,19.08
2023-03-22T11:49:01.442Z,19.38
2023-03-22T11:51:35.129Z,19.66
2023-03-22T11:54:30.509Z,19.88
2023-03-22T11:57:02.849Z,20.06
2023-03-22T11:59:39.002Z,20.25
2023-03-22T12:02:16.311Z,20.36
2023-03-22T12:04:49.116Z,20.44
2023-03-22T12:07:21.571Z,20.65
2023-03-22T12:09:58.964Z,20.93
2023-03-22T12:12:34.580Z,21.08
2023-03-22T12:15:08.476Z,21.16
2023-03-22T12:17:44.006Z,21.16
2023-03-22T12:20:27.390Z,21.12
2023-03-22T12:22:56.724Z,21.30
2023-03-22T12:25:36.695Z,21.43
2023-03-22T12:28:18.469Z,21.45
2023-03-22T12:30:49.559Z,21.37
2023-03-22T12:33:33.713Z,21.36
2023-03-22T12:36:05.420Z,21.17
2023-03-22T12:38:42.821Z,21.07
2023-03-22T12:41:25.359Z,20.97
2023-03-22T12:44:01.234Z,20.91
2023-03-22T12:46:40.167Z,20.88
2023-03-22T12:49:28.082Z,20.85
2023-03-22T12:52:06.155Z,20.80
2023-03-22T12:54:35.606Z,20.65
2023-03-22T12:57:04.776Z,20.52
2023-03-22T12:59:33.141Z,20.48
2023-03-22T13:02:15.712Z,20.37
2023-03-22T13:04:43.866Z,20.23
2023-03-22T13:07:15.361Z,20.09
2023-03-22T13:09:48.890Z,20.05
2023-03-22T13:12:17.307Z,20.03
2023-03-22T13:15:31.557Z,20.01
2023-03-22T13:18:31.785Z,19.91
2023-03-22T13:21:22.799Z,19.83
2023-03-22T13:23:54.070Z,19.73
2023-03-22T13:26:47.422Z,19.68
2023-03-22T13:29:38.133Z,19.67
2023-03-22T13:32:33.447Z,19.70
2023-03-22T13:35:01.866Z,19.79
2023-03-22T13:37:37.581Z,19.90
2023-03-22T13:40:38.012Z,19.99
2023-03-22T13:43:15.579Z,20.13
2023-03-22T13:46:05.074Z,20.27
2023-03-22T13:48:47.287Z,20.41
2023-03-22T13:51:22.037Z,20.44
2023-03-22T13:54:24.015Z,20.32
2023-03-22T13:56:53.329Z,20.15
2023-03-22T13:59:27.841Z,20.00
2023-03-22T14:01:59.204Z,19.94
2023-03-22T14:04:40.639Z,19.85
2023-03-22T14:07:40.290Z,19.76
2023-03-22T14:10:47.015Z,19.89
2023-03-22T14:13:29.472Z,20.02
2023-03-22T14:16:06.411Z,19.96
2023-03-22T14:18:39.360Z,19.83
2023-03-22T14:21:13.874Z,19.62
